• Join FlightAware (Why Join?)
  • Login
  • US Flag GB Flag 
12:21 EDT


 

Airport Tracker/Info


-or-


 

Live Flight TrackerFlight Track Log ✈ N989WU ✈ 17-Sep-2013 ✈ KCWV - KAPF

Flight Track Log - Related Links

Times and Time Zones

All times are in EDT time to prevent confusion due to time zone crossing. See the N989WU flight status page for this flight to view local times or setup timezone preferences in your user account.

Time Position Orientation Groundspeed Altitude Reporting Facility
EDT Latitude Longitude Course Direction KTS MPH feet Rate Location/Type
08:30 32.1144 -81.8647 205° Southwest 100 115 2,400  Level Jacksonville Center
08:31 32.0914 -81.8772 205° Southwest 100 115 2,900 480 Climbing Jacksonville Center
08:32 32.0708 -81.8897 207° Southwest 100 115 3,400 540 Climbing Jacksonville Center
08:33 32.0500 -81.9072 215° Southwest 100 115 4,000 540 Climbing Jacksonville Center
08:34 32.0250 -81.9247 211° Southwest 100 115 4,500 480 Climbing Jacksonville Center
08:35 32.0022 -81.9397 209° Southwest 100 115 5,000 420 Climbing Jacksonville Center
08:36 31.9792 -81.9497 200° South 100 115 5,400 360 Climbing Jacksonville Center
08:37 31.9564 -81.9522 185° South 93 107 5,800 360 Climbing Jacksonville Center
08:38 31.9272 -81.9503 177° South 93 107 6,200 360 Climbing Jacksonville Center
08:39 31.9019 -81.9456 171° South 98 113 6,600 300 Climbing Jacksonville Center
08:40 31.8747 -81.9433 176° South 98 113 6,900 300 Climbing Jacksonville Center
08:41 31.8519 -81.9461 186° South 103 119 7,300 300 Climbing Jacksonville Center
08:42 31.8247 -81.9439 176° South 103 119 7,600 300 Climbing Jacksonville Center
08:43 31.7956 -81.9467 185° South 103 119 7,900 120 Climbing Jacksonville Center
08:44 31.7664 -81.9469 180° South 103 119 7,900  Level Jacksonville Center
08:45 31.7372 -81.9497 185° South 103 119 7,900  Level Jacksonville Center
08:46 31.7119 -81.9500 181° South 103 119 7,900  Level Jacksonville Center
08:47 31.6808 -81.9550 188° South 103 119 8,000  Climbing Jacksonville Center
08:48 31.6536 -81.9553 180° South 103 119 7,900 -120 Descending Jacksonville Center
08:49 31.6244 -81.9581 185° South 103 119 7,800 -60 Descending Jacksonville Center
08:50 31.6014 -81.9583 181° South 103 119 7,800  Level Jacksonville Center
08:51 31.5744 -81.9611 185° South 103 119 7,800  Level Jacksonville Center
08:52 31.5492 -81.9614 181° South 98 113 7,900 60 Climbing Jacksonville Center
08:53 31.5222 -81.9617 181° South 98 113 8,000  Climbing Jacksonville Center
08:54 31.4950 -81.9594 176° South 98 113 7,900 -60 Descending Jacksonville Center
08:55 31.4719 -81.9572 175° South 104 120 7,900  Level Jacksonville Center
08:56 31.4386 -81.9550 177° South 104 120 7,900 -60 Level Jacksonville Center
08:57 31.4094 -81.9531 177° South 104 120 7,800 -60 Descending Jacksonville Center
08:58 31.3822 -81.9483 172° South 104 120 7,800 60 Level Jacksonville Center
08:59 31.3572 -81.9486 181° South 99 114 8,000 60 Climbing Jacksonville Center
09:00 31.3300 -81.9489 180° South 104 120 8,000  Level Jacksonville Center
09:01 31.2986 -81.9467 177° South 104 120 8,000  Level Jacksonville Center
09:02 31.2714 -81.9469 180° South 99 114 8,000  Level Jacksonville Center
09:03 31.2464 -81.9472 181° South 99 114 8,100  Climbing Jacksonville Center
09:04 31.2214 -81.9500 185° South 99 114 8,100  Level Jacksonville Center
09:05 31.1942 -81.9503 181° South 99 114 8,100 -120 Level Jacksonville Center
09:05 31.1775 -81.9503 180° South 98 113 8,000  Descending Jacksonville Center
09:06 31.1608 -81.9506 181° South 105 121 8,100 -120 Climbing Jacksonville Center
09:06 31.1483 -81.9531 190° South 102 117 7,900 -120 Descending Jacksonville Center
09:07 31.1336 -81.9533 181° South 105 121 8,000  Climbing Jacksonville Center
09:07 31.1211 -81.9583 199° South 104 120 7,900  Descending Jacksonville Center
09:08 31.1086 -81.9561 171° South 105 121 8,000  Climbing Jacksonville Center
09:08 31.0919 -81.9586 187° South 104 120 7,900  Descending Jacksonville Center
09:09 31.0753 -81.9586 180° South 105 121 8,000 -120 Climbing Jacksonville Center
09:09 31.0628 -81.9614 191° South 102 117 7,800 -120 Descending Jacksonville Center
09:10 31.0481 -81.9639 188° South 105 121 7,900  Climbing Jacksonville Center
09:11 31.0336 -81.9639 180° South 101 116 7,800  Descending Jacksonville Center
09:11 31.0211 -81.9667 191° South 105 121 7,900 -120 Climbing Jacksonville Center
09:12 31.0064 -81.9667 180° South 99 114 7,700  Descending Jacksonville Center
09:12 30.9939 -81.9692 190° South 105 121 7,900 180 Climbing Jacksonville Center
09:13 30.9794 -81.9717 188° South 98 113 7,900 60 Level Jacksonville Center
09:13 30.9669 -81.9744 191° South 105 121 8,000  Climbing Jacksonville Center
09:14 30.9542 -81.9719 170° South 90 104 7,900  Descending Jacksonville Center
09:14 30.9417 -81.9769 199° South 105 121 8,000 60 Climbing Jacksonville Center
09:15 30.9272 -81.9772 181° South 95 109 8,000 60 Level Jacksonville Center
09:15 30.9147 -81.9797 190° South 105 121 8,100  Climbing Jacksonville Center
09:16 30.8981 -81.9822 187° South 101 116 8,000 -180 Descending Jacksonville Center
09:17 30.8708 -81.9825 181° South 101 116 7,900 -60 Descending Jacksonville Center
09:18 30.8439 -81.9900 193° South 98 113 7,900 -60 Level Jacksonville Center
09:19 30.8144 -81.9928 185° South 99 114 7,800 -60 Descending Jacksonville Center
09:20 30.7894 -81.9978 190° South 96 110 7,800  Level Jacksonville Center
09:21 30.7644 -82.0028 190° South 91 105 7,900  Climbing Jacksonville Center
09:22 30.7394 -82.0103 194° South 91 105 7,900  Level Jacksonville Center
09:23 30.7125 -82.0156 190° South 91 105 8,000  Climbing Jacksonville Center
09:24 30.6875 -82.0231 194° South 91 105 8,000  Level Jacksonville Center
09:25 30.6625 -82.0281 190° South 93 107 8,000  Level Jacksonville Center
09:26 30.6372 -82.0331 190° South 93 107 8,000 -60 Level Jacksonville Center
09:27 30.6103 -82.0381 189° South 95 109 7,900 -60 Descending Jacksonville Center
09:28 30.5811 -82.0408 185° South 106 122 7,900 -60 Level Jacksonville Center
09:29 30.5561 -82.0411 181° South 92 106 7,800 -60 Descending Jacksonville Center
09:30 30.5267 -82.0461 188° South 96 110 7,800  Level Jacksonville Center
09:31 30.5017 -82.0486 185° South 98 113 7,800  Level Jacksonville Center
09:32 30.4747 -82.0489 181° South 96 110 7,800  Level Jacksonville Center
09:33 30.4475 -82.0539 189° South 96 110 7,800 60 Level Jacksonville Center
09:34 30.4225 -82.0592 190° South 87 100 8,000 60 Climbing Jacksonville Center
09:35 30.3953 -82.0642 189° South 92 106 8,000 -120 Level Jacksonville Center
09:36 30.3683 -82.0644 181° South 99 114 7,800 -360 Descending Jacksonville Center
09:37 30.3389 -82.0647 180° South 117 135 7,300 -420 Descending Jacksonville Center
09:38 30.3036 -82.0650 180° South 117 135 7,000 -240 Descending Jacksonville Center
09:39 30.2742 -82.0628 176° South 107 123 6,900 -60 Descending Jacksonville Center
09:40 30.2472 -82.0653 185° South 94 108 6,900  Level Jacksonville Center
09:41 30.2200 -82.0706 190° South 93 107 6,900  Level Jacksonville Center
09:42 30.1928 -82.0706 180° South 93 107 6,900  Level Jacksonville Center
09:43 30.1678 -82.0758 190° South 93 107 7,000  Climbing Jacksonville Center
09:44 30.1408 -82.0783 185° South 99 114 6,900 -60 Descending Jacksonville Center
09:45 30.1136 -82.0808 185° South 101 116 6,900  Level Jacksonville Center
09:46 30.0864 -82.0811 181° South 100 115 6,900 -60 Level Jacksonville Center
09:47 30.0553 -82.0864 188° South 101 116 6,800 -60 Descending Jacksonville Center
09:48 30.0281 -82.0864 180° South 101 116 6,800  Level Jacksonville Center
09:49 29.9989 -82.0914 188° South 101 116 6,800  Level Jacksonville Center
09:50 29.9717 -82.0917 181° South 98 113 6,900  Climbing Jacksonville Center
09:51 29.9447 -82.0967 189° South 98 113 6,900  Level Jacksonville Center
09:52 29.9153 -82.1017 188° South 98 113 6,900  Level Jacksonville Center
09:53 29.8883 -82.1019 181° South 99 114 6,900  Level Jacksonville Center
09:54 29.8611 -82.1069 189° South 98 113 6,900  Level Jacksonville Center
09:55 29.8342 -82.1097 185° South 99 114 6,900  Level Jacksonville Center
09:56 29.8047 -82.1147 188° South 99 114 7,000  Climbing Jacksonville Center
09:57 29.7756 -82.1197 188° South 99 114 7,000  Level Jacksonville Center
09:58 29.7486 -82.1222 185° South 99 114 7,100  Climbing Jacksonville Center
09:59 29.7214 -82.1297 193° South 101 116 7,100  Level Jacksonville Center
10:00 29.6900 -82.1300 180° South 102 117 7,100 -60 Level Jacksonville Center
10:01 29.6650 -82.1350 190° South 99 114 7,000 -60 Descending Jacksonville Center
10:02 29.6358 -82.1350 180° South 100 115 7,000  Level Jacksonville Center
10:03 29.6067 -82.1378 185° South 100 115 7,000  Level Jacksonville Center
10:04 29.5794 -82.1403 185° South 100 115 7,000 -60 Level Jacksonville Center
10:05 29.5503 -82.1406 180° South 101 116 6,900 -60 Descending Jacksonville Center
10:06 29.5231 -82.1431 185° South 100 115 6,900  Level Jacksonville Center
10:07 29.4961 -82.1433 181° South 97 112 6,900  Level Jacksonville Center
10:08 29.4689 -82.1436 181° South 97 112 6,900  Level Jacksonville Center
10:09 29.4397 -82.1461 184° South 98 113 6,900  Level Jacksonville Center
10:10 29.4125 -82.1489 185° South 97 112 6,900  Level Jacksonville Center
10:11 29.3875 -82.1489 180° South 97 112 6,900  Level Jacksonville Center
10:12 29.3583 -82.1539 188° South 98 113 6,900  Level Jacksonville Center
10:13 29.3333 -82.1542 181° South 91 105 7,000 60 Climbing Jacksonville Center
10:14 29.3061 -82.1497 172° South 93 107 7,100  Climbing Jacksonville Center
10:15 29.2789 -82.1497 180° South 95 109 7,100  Level Jacksonville Center
10:16 29.2519 -82.1475 176° South 97 112 7,200  Climbing Jacksonville Center
10:17 29.2247 -82.1456 176° South 98 113 7,100 -60 Descending Jacksonville Center
10:18 29.1975 -82.1456 180° South 99 114 7,100  Level Jacksonville Center
10:19 29.1683 -82.1433 176° South 102 117 7,100  Level Jacksonville Center
10:21 29.1392 -82.1436 180° South 101 116 7,100  Level Jacksonville Center
10:22 29.1097 -82.1367 168° South 101 116 7,100  Level Jacksonville Center
10:23 29.0828 -82.1394 185° South 102 117 7,100 -60 Level Jacksonville Center
10:24 29.0533 -82.1397 180° South 104 120 7,000 -60 Descending Jacksonville Center
10:25 29.0242 -82.1397 180° South 105 121 7,000 -60 Level Jacksonville Center
10:26 28.9931 -82.1425 184° South 104 120 6,900 -60 Descending Jacksonville Center
10:27 28.9636 -82.1403 176° South 105 121 6,900  Level Jacksonville Center
10:28 28.9344 -82.1428 184° South 106 122 6,900  Level Jacksonville Center
10:29 28.9053 -82.1383 172° South 107 123 6,900  Level Jacksonville Center
10:30 28.8761 -82.1386 180° South 100 115 6,900  Level Jacksonville Center
10:31 28.8511 -82.1364 176° South 92 106 7,000 60 Climbing Jacksonville Center
10:32 28.8239 -82.1342 176° South 94 108 7,100 -60 Climbing Jacksonville Center
10:33 28.7833 -82.1333 179° South 104 120 6,900 -120 Descending Tampa TRACON
10:34 28.7500 -82.1167 156° South 107 123 6,900 -60 Level Tampa TRACON
10:35 28.7167 -82.1167 180° South 101 116 6,800  Descending Tampa TRACON
10:36 28.7000 -82.1167 180° South 98 113 6,900 60 Climbing Tampa TRACON
10:37 28.6667 -82.1167 180° South 93 107 7,000  Climbing Tampa TRACON
10:38 28.6500 -82.1167 180° South 96 110 7,000  Level Tampa TRACON
10:39 28.6167 -82.1167 180° South 105 121 7,000 -60 Level Tampa TRACON
10:40 28.5833 -82.1000 156° South 110 127 6,900 -120 Descending Tampa TRACON
10:41 28.5500 -82.1000 180° South 111 128 6,800 -60 Descending Tampa TRACON
10:42 28.5167 -82.1000 180° South 99 114 6,800  Level Tampa TRACON
10:43 28.5000 -82.1000 180° South 97 112 6,800  Level Tampa TRACON
10:44 28.4667 -82.0833 156° South 99 114 6,800  Level Tampa TRACON
10:45 28.4500 -82.0833 180° South 99 114 6,800  Level Tampa TRACON
10:46 28.4167 -82.0833 180° South 98 113 6,800  Level Tampa TRACON
10:47 28.3833 -82.0833 180° South 99 114 6,800  Level Tampa TRACON
10:48 28.3667 -82.0833 180° South 99 114 6,900  Climbing Tampa TRACON
10:49 28.3333 -82.0833 180° South 96 110 6,900  Level Tampa TRACON
10:50 28.3000 -82.0667 156° South 98 113 6,900  Level Tampa TRACON
10:51 28.2833 -82.0667 180° South 96 110 6,900  Level Tampa TRACON
10:52 28.2500 -82.0667 180° South 94 108 7,000  Climbing Tampa TRACON
10:53 28.2333 -82.0500 139° Southeast 98 113 6,900  Descending Tampa TRACON
10:54 28.2000 -82.0500 180° South 99 114 7,000  Climbing Tampa TRACON
10:55 28.1667 -82.0500 180° South 96 110 6,900 -60 Descending Tampa TRACON
10:56 28.1500 -82.0333 139° Southeast 98 113 6,900  Level Tampa TRACON
10:57 28.1167 -82.0333 180° South 98 113 6,900  Level Tampa TRACON
10:58 28.1000 -82.0333 180° South 96 110 6,900  Level Tampa TRACON
10:59 28.0667 -82.0167 156° South 97 112 6,900 -60 Level Tampa TRACON
11:00 28.0333 -82.0167 180° South 99 114 6,800  Descending Tampa TRACON
11:01 28.0167 -82.0000 139° Southeast 88 101 6,900  Climbing Tampa TRACON
11:02 28.0000 -81.9833 139° Southeast 86 99 6,900  Level Tampa TRACON
11:03 27.9667 -81.9833 180° South 91 105 7,000  Climbing Tampa TRACON
11:04 27.9500 -81.9667 139° Southeast 97 112 6,900 -60 Descending Tampa TRACON
11:06 27.8989 -81.9711 184° South 76 87 6,900  Level Miami Center
11:07 27.8717 -81.9722 182° South 89 102 7,000  Climbing Miami Center
11:08 27.8444 -81.9711 178° South 95 109 7,000  Level Miami Center
11:09 27.8214 -81.9725 183° South 101 116 7,000  Level Miami Center
11:10 27.7903 -81.9686 174° South 101 116 7,000 -60 Level Miami Center
11:11 27.7631 -81.9722 187° South 101 116 6,900 -60 Descending Miami Center
11:12 27.7339 -81.9756 186° South 101 116 6,900  Level Miami Center
11:13 27.7064 -81.9814 191° South 101 116 6,900  Level Miami Center
11:14 27.6814 -81.9825 182° South 101 116 6,900  Level Miami Center
11:15 27.6542 -81.9861 187° South 106 122 6,900  Level Miami Center
11:16 27.6269 -81.9869 182° South 106 122 6,900  Level Miami Center
11:17 27.6017 -81.9906 187° South 106 122 6,900  Level Miami Center
11:18 27.5747 -81.9917 182° South 106 122 6,900  Level Miami Center
11:19 27.5497 -81.9906 178° South 101 116 6,900  Level Miami Center
11:20 27.5203 -81.9917 182° South 101 116 6,900  Level Miami Center
11:21 27.4953 -81.9931 183° South 101 116 6,900  Level Miami Center
11:22 27.4681 -81.9917 177° South 101 116 7,000  Climbing Miami Center
11:23 27.4431 -81.9906 178° South 101 116 7,000  Level Miami Center
11:24 27.4181 -81.9894 178° South 101 116 7,000  Level Miami Center
11:25 27.3931 -81.9883 178° South 101 116 7,000 -60 Level Miami Center
11:26 27.3658 -81.9919 187° South 101 116 6,900 -60 Descending Miami Center
11:27 27.3386 -81.9953 186° South 101 116 6,900  Level Miami Center
11:28 27.3136 -81.9989 187° South 101 116 6,900  Level Miami Center
11:29 27.2864 -82.0000 182° South 101 116 6,900  Level Miami Center
11:30 27.2611 -82.0011 182° South 101 116 7,000  Climbing Miami Center
11:31 27.2361 -82.0025 183° South 101 116 7,000  Level Miami Center
11:32 27.2092 -81.9989 173° South 101 116 7,000  Level Miami Center
11:33 27.1819 -82.0000 182° South 101 116 7,000 -60 Level Miami Center
11:34 27.1550 -81.9989 178° South 101 116 6,900 -60 Descending Miami Center
11:35 27.1275 -82.0022 186° South 101 116 6,900  Level Miami Center
11:36 27.1025 -82.0036 183° South 101 116 7,000  Climbing Miami Center
11:37 27.0756 -82.0022 177° South 101 116 6,900 -60 Descending Miami Center
11:38 27.0503 -82.0036 183° South 101 116 6,900  Level Miami Center
11:40 27.0195 -81.9989 172° South  Level FlightAware Approximate
11:47 26.8301 -81.9580 165° South  Level FlightAware Approximate
11:48 26.8036 -81.9503 165° South  Level FlightAware Approximate
11:49 26.7770 -81.9425 165° South  Level FlightAware Approximate
11:50 26.7505 -81.9348 165° South  Level FlightAware Approximate
11:51 26.7240 -81.9270 165° South  Level FlightAware Approximate
11:52 26.6974 -81.9193 165° South  Level FlightAware Approximate
11:53 26.6709 -81.9116 165° South  Level FlightAware Approximate
11:54 26.6443 -81.9038 165° South  Level FlightAware Approximate
11:55 26.6178 -81.8961 165° South  Level FlightAware Approximate
11:56 26.5913 -81.8884 165° South  Level FlightAware Approximate
11:57 26.5647 -81.8806 165° South  Level FlightAware Approximate
11:58 26.5382 -81.8729 165° South  Level FlightAware Approximate
11:59 26.5115 -81.8656 170° South  Level FlightAware Approximate
12:00 26.4845 -81.8602 170° South  Level FlightAware Approximate
12:01 26.4575 -81.8548 170° South  Level FlightAware Approximate
12:02 26.4306 -81.8491 163° South  Level FlightAware Approximate
12:03 26.4044 -81.8403 163° South  Level FlightAware Approximate
12:04 26.3781 -81.8316 163° South  Level FlightAware Approximate
12:05 26.3518 -81.8228 163° South  Level FlightAware Approximate
12:06 26.3254 -81.8144 166° South  Level FlightAware Approximate
12:07 26.2988 -81.8068 166° South  Level FlightAware Approximate
12:08 26.2723 -81.7992 166° South  Level FlightAware Approximate
12:09 26.2457 -81.7916 166° South  Level FlightAware Approximate
12:10 26.2191 -81.7840 166° South  Level FlightAware Approximate
12:11 26.1924 -81.7773 167° South  Level FlightAware Approximate
12:12 26.1656 -81.7706 167° South  Level FlightAware Approximate
12:13 26.1500 -81.7667 167° South  Level FlightAware Approximate
12:14 26.1524 -81.7756 167° South  Level Estimated
12:15 26.1524 -81.7756 167° South  Level Estimated
12:16 26.1524 -81.7756 167° South  Level Estimated
12:17 26.1524 -81.7756 167° South  Level Estimated
12:18 26.1524 -81.7756 167° South  Level Estimated
12:19 26.1524 -81.7756 167° South  Level Estimated
12:20 26.1524 -81.7756 167° South  Level Estimated
12:21 26.1524 -81.7756 167° South  Level Estimated
12:22 26.1524 -81.7756 167° South  Level Estimated
12:23 26.1524 -81.7756 167° South  Level Estimated
12:24 26.1524 -81.7756 167° South  Level Estimated
12:25 26.1524 -81.7756 167° South  Level Estimated
12:26 26.1524 -81.7756 167° South  Level Estimated
12:27 26.1524 -81.7756 167° South  Level Estimated
12:28 26.1524 -81.7756 167° South  Level Estimated